KDET/DET METAR and TAF weather

Enter ICAO airport designator
Station Type Date Time Source
KDET METAR 2022/01/25 04:53 UTC NOAA

KDET 250453Z 33009G15KT 10SM FEW045 OVC050 M05/M09 A2983 RMK AO2 SLP109 T10501094 410391117


Station Type Date Time Source
KDET Decoded METAR 2022/01/25 04:53 UTC NOAA

DETROIT CITY AIRPORT, MI, United States (KDET) 42-25N 083-01W 190M
Jan 24, 2022 - 11:53 PM EST / 2022.01.25 0453 UTC
Wind: from the NNW (330 degrees) at 10 MPH (9 KT) gusting to 17 MPH (15 KT):0
Visibility: 10 mile(s):0
Sky conditions: overcast
Temperature: 23.0 F (-5.0 C)
Windchill: 12 F (-11 C):1
Dew Point: 15.1 F (-9.4 C)
Relative Humidity: 71%
Pressure (altimeter): 29.83 in. Hg (1010 hPa)
ob: KDET 250453Z 33009G15KT 10SM FEW045 OVC050 M05/M09 A2983 RMK AO2 SLP109 T10501094 410391117
cycle: 5

Station Type Date Time Source
KDET TAF 2022/01/25 06:22 UTC NOAA

TAF KDET 250520Z 2506/2606 32009KT P6SM SCT025 OVC040
FM250800 32008KT P6SM SCT045 SCT060
FM251600 28010KT P6SM BKN045
TEMPO 2522/2601 6SM -SHSN BKN035

Example: see airport list